Time;durP1;ratioP1;P1;durP2;ratioP2;P2;SDS_P1;SDS_P2;PMS_P1;PMS_P2;Temp;Humidity;BMP_temperature;BMP_pressure;BME280_temperature;BME280_humidity;BME280_pressure;Samples;Min_cycle;Max_cycle;Signal;HPM_P1;HPM_P2
2021/12/08 00:01:43;;;;;;;4.90;2.67;;;;;;;2.97;100.00;97474.03;5051796;28;20224;-84
2021/12/08 00:04:12;;;;;;;7.40;2.43;;;;;;;2.95;100.00;97481.13;5050494;28;20201;-84
2021/12/08 00:06:40;;;;;;;3.97;2.07;;;;;;;3.03;100.00;97474.50;5050901;28;20197;-84
2021/12/08 00:09:26;;;;;;;3.70;2.30;;;;;;;3.03;100.00;97473.66;5048287;28;20201;-84
2021/12/08 00:14:46;;;;;;;5.27;2.07;;;;;;;2.99;100.00;97467.78;5051722;28;20197;-84
2021/12/08 00:17:14;;;;;;;4.40;2.00;;;;;;;3.06;100.00;97463.00;5065608;27;20240;-84
2021/12/08 00:19:42;;;;;;;6.40;2.17;;;;;;;3.05;100.00;97467.41;5051406;28;20189;-84
2021/12/08 00:22:18;;;;;;;3.97;1.97;;;;;;;3.06;100.00;97463.00;5091434;28;20258;-84
2021/12/08 00:24:47;;;;;;;8.03;2.10;;;;;;;2.96;100.00;97451.44;5085735;28;20646;-85
2021/12/08 00:27:18;;;;;;;3.90;1.80;;;;;;;3.02;100.00;97451.06;5087592;28;20245;-85
2021/12/08 00:29:49;;;;;;;3.43;1.77;;;;;;;3.03;100.00;97445.75;5085701;28;20203;-84
2021/12/08 00:32:20;;;;;;;5.90;2.13;;;;;;;3.03;100.00;97437.06;5086670;28;20196;-84
2021/12/08 00:34:48;;;;;;;6.90;2.00;;;;;;;3.07;100.00;97428.06;5086838;28;20342;-84
2021/12/08 00:37:17;;;;;;;4.20;1.90;;;;;;;3.02;100.00;97423.16;5083492;28;20226;-84
2021/12/08 00:39:46;;;;;;;3.67;2.07;;;;;;;3.00;100.00;97427.63;5075886;28;20226;-84
2021/12/08 00:42:14;;;;;;;5.50;1.57;;;;;;;3.03;100.00;97419.59;5049791;28;20678;-84
2021/12/08 00:44:43;;;;;;;5.00;1.37;;;;;;;3.05;100.00;97409.03;5050982;28;20634;-84
2021/12/08 00:47:13;;;;;;;2.70;1.70;;;;;;;2.97;100.00;97422.56;5047038;28;20193;-84
2021/12/08 00:49:41;;;;;;;4.50;1.60;;;;;;;2.96;100.00;97427.91;5051171;28;20196;-84
2021/12/08 00:52:11;;;;;;;3.60;1.63;;;;;;;2.93;100.00;97422.88;5048774;28;20208;-84
2021/12/08 00:54:39;;;;;;;5.13;1.73;;;;;;;2.91;100.00;97440.44;5046923;28;20201;-84
2021/12/08 00:57:08;;;;;;;4.87;1.80;;;;;;;2.98;100.00;97449.56;5050949;28;20704;-84
2021/12/08 00:59:37;;;;;;;4.77;1.90;;;;;;;3.06;100.00;97447.31;5083320;27;20201;-84
2021/12/08 01:02:26;;;;;;;5.47;1.60;;;;;;;3.00;100.00;97440.72;5073696;28;20181;-82
2021/12/08 01:04:55;;;;;;;2.63;1.40;;;;;;;3.10;100.00;97427.91;5052386;28;20193;-84
2021/12/08 01:07:23;;;;;;;2.77;1.70;;;;;;;3.03;100.00;97403.91;5049971;28;20220;-84
2021/12/08 01:09:51;;;;;;;2.43;1.53;;;;;;;3.05;100.00;97383.72;5048067;28;20196;-84
2021/12/08 01:12:20;;;;;;;5.03;1.80;;;;;;;3.01;100.00;97384.84;5054524;28;20253;-84
2021/12/08 01:14:49;;;;;;;2.53;1.50;;;;;;;3.04;100.00;97382.03;5050862;28;20193;-83
2021/12/08 01:17:17;;;;;;;3.50;1.50;;;;;;;3.02;100.00;97389.16;5050576;28;20221;-84
2021/12/08 01:19:48;;;;;;;3.60;1.60;;;;;;;3.01;100.00;97384.84;5067467;27;20200;-84
2021/12/08 01:22:17;;;;;;;3.93;1.50;;;;;;;2.96;100.00;97384.28;5047337;28;20208;-84
2021/12/08 01:24:45;;;;;;;4.07;1.50;;;;;;;3.00;100.00;97395.41;5048164;28;20639;-84
2021/12/08 01:27:14;;;;;;;3.00;1.50;;;;;;;2.95;100.00;97398.31;5050536;28;20224;-84
2021/12/08 01:29:42;;;;;;;3.20;1.87;;;;;;;2.82;100.00;97407.84;5044407;28;20234;-85
2021/12/08 01:32:11;;;;;;;4.67;1.70;;;;;;;2.85;100.00;97410.25;5045487;28;20204;-86
2021/12/08 01:34:39;;;;;;;3.33;1.40;;;;;;;2.78;100.00;97411.56;5047078;28;20200;-85
2021/12/08 01:37:10;;;;;;;3.27;1.60;;;;;;;2.72;100.00;97415.41;5047987;28;20221;-85
2021/12/08 01:39:38;;;;;;;3.17;1.53;;;;;;;2.69;100.00;97406.88;5050666;28;20201;-86
2021/12/08 01:42:15;;;;;;;3.03;1.43;;;;;;;2.58;100.00;97412.75;5050745;28;20335;-86
2021/12/08 01:47:31;;;;;;;5.40;1.63;;;;;;;2.48;100.00;97422.09;5031823;28;20194;-87
2021/12/08 01:49:59;;;;;;;2.57;1.50;;;;;;;2.37;100.00;97425.34;5028094;28;20202;-87
2021/12/08 01:52:29;;;;;;;5.53;1.83;;;;;;;2.30;100.00;97421.38;5029240;28;20205;-86
2021/12/08 01:54:58;;;;;;;4.27;2.00;;;;;;;2.29;100.00;97440.59;5018430;28;20213;-86
2021/12/08 01:57:26;;;;;;;5.07;1.83;;;;;;;2.19;100.00;97449.91;5029168;28;20221;-86
2021/12/08 01:59:55;;;;;;;6.17;1.80;;;;;;;2.10;100.00;97446.06;5031975;28;20280;-86
2021/12/08 02:02:23;;;;;;;2.43;1.47;;;;;;;2.05;100.00;97442.88;5038071;28;20201;-86
2021/12/08 02:04:51;;;;;;;2.67;1.70;;;;;;;2.02;100.00;97448.25;5053756;28;20193;-86
2021/12/08 02:07:20;;;;;;;2.27;1.77;;;;;;;1.96;100.00;97453.84;5052061;28;20678;-86
2021/12/08 02:09:50;;;;;;;5.27;2.10;;;;;;;1.95;100.00;97452.16;5053799;28;20193;-86
2021/12/08 02:12:18;;;;;;;2.50;1.70;;;;;;;1.95;100.00;97462.63;5052244;28;20209;-86
2021/12/08 02:14:46;;;;;;;3.37;1.50;;;;;;;1.81;100.00;97439.03;5067945;27;20193;-86
2021/12/08 02:17:15;;;;;;;3.10;1.80;;;;;;;1.82;100.00;97436.34;5051524;28;20213;-86
2021/12/08 02:19:43;;;;;;;3.00;1.60;;;;;;;1.80;100.00;97448.66;5049875;28;20190;-85
2021/12/08 02:22:13;;;;;;;5.07;1.93;;;;;;;1.66;100.00;97443.38;5051804;28;20197;-86
2021/12/08 02:24:41;;;;;;;6.17;2.00;;;;;;;1.61;100.00;97453.22;5054818;28;20181;-84
2021/12/08 02:27:09;;;;;;;5.33;1.80;;;;;;;1.54;100.00;97437.03;5072332;28;20229;-87
2021/12/08 02:29:43;;;;;;;3.47;1.80;;;;;;;1.49;100.00;97444.28;5028166;28;20193;-86
2021/12/08 02:32:28;;;;;;;2.57;1.83;;;;;;;1.51;100.00;97452.88;5052072;28;20193;-85
2021/12/08 02:48:42;;;;;;;5.97;2.30;;;;;;;1.35;100.00;97437.25;5052928;28;20189;-86
2021/12/08 02:51:10;;;;;;;3.60;2.13;;;;;;;1.33;100.00;97431.25;5063601;27;20211;-87
2021/12/08 02:53:40;;;;;;;6.63;2.40;;;;;;;1.42;100.00;97435.97;5049312;28;20659;-86
2021/12/08 02:56:08;;;;;;;5.53;2.17;;;;;;;1.44;100.00;97441.09;5047383;28;20203;-86
2021/12/08 02:58:37;;;;;;;4.40;2.13;;;;;;;1.47;100.00;97438.34;5069430;28;20213;-86
2021/12/08 03:01:08;;;;;;;4.50;2.20;;;;;;;1.47;100.00;97440.09;5058528;28;20201;-87
2021/12/08 03:03:37;;;;;;;5.07;2.53;;;;;;;1.43;100.00;97442.84;5053633;28;20277;-86
2021/12/08 03:06:09;;;;;;;4.67;2.43;;;;;;;1.49;100.00;97428.66;5052467;28;20222;-87
2021/12/08 03:08:37;;;;;;;4.13;2.30;;;;;;;1.45;100.00;97421.94;5048998;28;20201;-87
2021/12/08 03:11:07;;;;;;;4.20;2.47;;;;;;;1.48;100.00;97406.09;5050444;28;20193;-86
2021/12/08 03:13:38;;;;;;;5.73;2.77;;;;;;;1.49;100.00;97426.03;5056569;28;20197;-86
2021/12/08 03:16:09;;;;;;;4.67;2.40;;;;;;;1.44;100.00;97410.63;5052596;28;20221;-86
2021/12/08 03:18:39;;;;;;;4.87;2.80;;;;;;;1.45;100.00;97419.31;5051820;28;20258;-85
2021/12/08 03:21:10;;;;;;;4.47;2.50;;;;;;;1.48;100.00;97416.53;5052649;28;20197;-86
2021/12/08 03:23:49;;;;;;;5.37;2.63;;;;;;;1.46;100.00;97414.94;5051208;28;20189;-85
2021/12/08 03:26:26;;;;;;;5.53;2.90;;;;;;;1.50;100.00;97422.50;5056685;28;20232;-85
2021/12/08 03:29:02;;;;;;;7.47;2.47;;;;;;;1.49;100.00;97426.03;5056652;27;20197;-86
2021/12/08 03:31:36;;;;;;;7.33;2.83;;;;;;;1.53;100.00;97424.09;5050381;28;20257;-86
2021/12/08 03:34:05;;;;;;;8.37;3.20;;;;;;;1.47;100.00;97432.28;5052688;28;20280;-85
2021/12/08 03:36:33;;;;;;;6.10;3.07;;;;;;;1.56;100.00;97432.59;5051157;28;20197;-86
2021/12/08 03:39:02;;;;;;;4.93;2.77;;;;;;;1.49;100.00;97436.47;5052391;28;20343;-86
2021/12/08 03:41:34;;;;;;;4.13;3.00;;;;;;;1.49;100.00;97433.03;5052441;28;20211;-86
2021/12/08 03:44:04;;;;;;;5.90;2.97;;;;;;;1.53;100.00;97431.91;5070445;28;20209;-86
2021/12/08 03:46:39;;;;;;;3.90;2.70;;;;;;;1.53;100.00;97424.09;5051256;28;20647;-86
2021/12/08 03:49:11;;;;;;;8.37;3.30;;;;;;;1.50;100.00;97439.91;5061017;27;20202;-86
2021/12/08 03:51:40;;;;;;;4.80;3.33;;;;;;;1.51;100.00;97426.78;5051381;28;20201;-86
2021/12/08 03:54:11;;;;;;;8.50;3.30;;;;;;;1.60;100.00;97425.44;5047172;28;20205;-85
2021/12/08 03:56:42;;;;;;;3.87;2.70;;;;;;;1.52;100.00;97423.25;5050919;28;20205;-86
2021/12/08 03:59:10;;;;;;;5.03;2.90;;;;;;;1.49;100.00;97428.66;5046989;28;20217;-87
2021/12/08 04:01:39;;;;;;;5.63;2.97;;;;;;;1.51;100.00;97436.38;5051710;28;20205;-85
2021/12/08 04:04:10;;;;;;;5.37;3.50;;;;;;;1.55;100.00;97430.94;5051860;28;20197;-85
2021/12/08 04:06:47;;;;;;;5.10;2.60;;;;;;;1.63;100.00;97430.47;5043508;28;20205;-85
2021/12/08 04:09:25;;;;;;;8.07;3.00;;;;;;;1.57;100.00;97431.69;5068680;27;20189;-85
2021/12/08 04:11:57;;;;;;;6.30;3.27;;;;;;;1.62;100.00;97441.84;5052345;28;20651;-85
2021/12/08 04:14:28;;;;;;;5.87;3.10;;;;;;;1.56;100.00;97442.19;5047678;28;20249;-84
2021/12/08 04:17:00;;;;;;;5.17;3.33;;;;;;;1.54;100.00;97433.59;5049492;28;20197;-85
2021/12/08 04:19:29;;;;;;;5.67;2.90;;;;;;;1.54;100.00;97450.09;5048988;28;20242;-85
2021/12/08 04:22:10;;;;;;;6.33;3.40;;;;;;;1.61;100.00;97446.22;5046448;28;20209;-85
2021/12/08 04:24:44;;;;;;;6.50;3.13;;;;;;;1.64;100.00;97446.06;5050173;28;20204;-85
2021/12/08 04:27:24;;;;;;;3.90;3.00;;;;;;;1.70;100.00;97444.88;5051487;28;20229;-85
2021/12/08 04:29:53;;;;;;;4.97;3.03;;;;;;;1.70;100.00;97444.88;5064395;27;20197;-85
2021/12/08 04:32:25;;;;;;;4.40;3.07;;;;;;;1.69;100.00;97451.84;5051613;28;20189;-85
2021/12/08 04:34:58;;;;;;;4.33;3.00;;;;;;;1.71;100.00;97456.97;5051498;28;20201;-85
2021/12/08 04:37:35;;;;;;;5.03;2.90;;;;;;;1.78;100.00;97445.28;5050000;28;20201;-85
2021/12/08 04:40:17;;;;;;;3.43;2.73;;;;;;;1.80;100.00;97446.03;5048217;28;20223;-85
2021/12/08 04:43:00;;;;;;;7.60;2.90;;;;;;;1.85;100.00;97438.81;5050161;28;20193;-85
2021/12/08 04:45:39;;;;;;;6.37;3.10;;;;;;;1.91;100.00;97434.97;5055219;27;20240;-85
2021/12/08 04:48:21;;;;;;;4.80;2.60;;;;;;;1.85;100.00;97435.34;5028249;28;20196;-85
2021/12/08 04:53:48;;;;;;;3.97;2.40;;;;;;;1.86;100.00;97435.25;5012226;28;20675;-85
2021/12/08 05:02:18;;;;;;;4.03;2.40;;;;;;;1.94;100.00;97437.44;5032850;28;20202;-85
2021/12/08 05:05:02;;;;;;;4.27;2.40;;;;;;;1.89;100.00;97448.13;5031007;28;20222;-85
2021/12/08 05:07:44;;;;;;;3.90;2.50;;;;;;;1.99;100.00;97445.84;5041008;27;20210;-85
2021/12/08 05:10:16;;;;;;;4.67;2.63;;;;;;;2.02;100.00;97440.44;5037338;28;20258;-85
2021/12/08 05:12:47;;;;;;;4.93;2.23;;;;;;;2.04;100.00;97433.38;5046564;28;20204;-85
2021/12/08 05:15:22;;;;;;;8.00;3.03;;;;;;;2.12;100.00;97441.56;5054443;27;20228;-84
2021/12/08 05:17:53;;;;;;;5.37;3.00;;;;;;;2.10;100.00;97435.59;5047667;28;20204;-85
2021/12/08 05:20:26;;;;;;;3.67;2.33;;;;;;;2.03;100.00;97436.91;5050809;28;20213;-85
2021/12/08 05:22:57;;;;;;;4.17;2.23;;;;;;;2.09;100.00;97439.16;5048668;28;20203;-84
2021/12/08 05:25:31;;;;;;;4.50;2.53;;;;;;;2.17;100.00;97447.38;5090705;28;20280;-84
2021/12/08 05:28:04;;;;;;;5.43;2.33;;;;;;;2.14;100.00;97444.97;5086777;28;20225;-84
2021/12/08 05:30:41;;;;;;;4.23;2.50;;;;;;;2.11;100.00;97433.84;5069472;28;20242;-84
2021/12/08 05:33:10;;;;;;;3.67;2.50;;;;;;;2.13;100.00;97432.00;4994389;28;20191;-84
2021/12/08 05:35:42;;;;;;;6.43;2.97;;;;;;;2.09;100.00;97435.69;4992795;28;20210;-84
2021/12/08 05:38:10;;;;;;;6.77;2.90;;;;;;;2.17;100.00;97434.34;4990080;28;20198;-84
2021/12/08 05:40:42;;;;;;;5.80;3.20;;;;;;;2.16;100.00;97437.03;4992398;28;20277;-85
2021/12/08 05:43:12;;;;;;;4.83;2.67;;;;;;;2.18;100.00;97440.41;4989375;28;20202;-84
2021/12/08 05:45:42;;;;;;;4.83;2.43;;;;;;;2.14;100.00;97444.13;4988912;28;20203;-84
2021/12/08 05:48:12;;;;;;;3.20;2.10;;;;;;;2.24;100.00;97438.28;4992142;28;20191;-84
2021/12/08 05:50:47;;;;;;;3.77;2.60;;;;;;;2.22;100.00;97444.50;5034467;27;20231;-83
2021/12/08 05:53:16;;;;;;;5.13;2.70;;;;;;;2.25;100.00;97446.94;5124068;27;20194;-84
2021/12/08 05:55:45;;;;;;;4.53;2.43;;;;;;;2.17;100.00;97446.56;5072720;27;20287;-84
2021/12/08 05:58:16;;;;;;;4.57;2.80;;;;;;;2.12;100.00;97445.97;5050042;28;20201;-84
2021/12/08 06:00:50;;;;;;;4.23;2.63;;;;;;;2.22;100.00;97434.91;5050141;28;20225;-84
2021/12/08 06:03:20;;;;;;;3.10;2.43;;;;;;;2.27;100.00;97438.09;5044205;28;20204;-84
2021/12/08 06:05:52;;;;;;;4.57;2.70;;;;;;;2.28;100.00;97444.16;5050339;28;20197;-85
2021/12/08 06:08:21;;;;;;;8.73;2.70;;;;;;;2.24;100.00;97440.88;5048951;28;20269;-84
2021/12/08 06:10:51;;;;;;;4.60;2.83;;;;;;;2.40;100.00;97443.44;5050300;28;20245;-84
2021/12/08 06:13:19;;;;;;;3.80;2.50;;;;;;;2.30;100.00;97440.50;5050005;28;20200;-85
2021/12/08 06:15:50;;;;;;;3.37;2.37;;;;;;;2.41;100.00;97445.09;5049974;28;20201;-84
2021/12/08 06:18:23;;;;;;;4.77;2.47;;;;;;;2.43;100.00;97439.81;5050319;28;20211;-85
2021/12/08 06:20:56;;;;;;;4.03;2.30;;;;;;;2.32;100.00;97443.06;5050527;28;20225;-85
2021/12/08 06:23:25;;;;;;;3.90;2.30;;;;;;;2.36;100.00;97434.09;5049690;28;20201;-85
2021/12/08 06:25:53;;;;;;;4.53;2.63;;;;;;;2.45;100.00;97430.09;5051530;28;20244;-85
2021/12/08 06:28:22;;;;;;;4.23;2.97;;;;;;;2.49;100.00;97434.22;5047874;28;20644;-85
2021/12/08 06:30:52;;;;;;;4.00;2.73;;;;;;;2.37;100.00;97434.94;5051881;28;20204;-85
2021/12/08 06:33:21;;;;;;;4.47;2.63;;;;;;;2.46;100.00;97447.47;5054221;28;20238;-85
2021/12/08 06:35:53;;;;;;;4.57;2.63;;;;;;;2.50;100.00;97446.34;5053920;28;20663;-85
2021/12/08 06:38:23;;;;;;;4.33;2.33;;;;;;;2.39;100.00;97435.69;5053897;27;20251;-85
2021/12/08 06:40:54;;;;;;;5.13;3.03;;;;;;;2.48;100.00;97435.16;5053779;28;20217;-85
2021/12/08 06:43:27;;;;;;;5.63;2.80;;;;;;;2.37;100.00;97437.56;5053569;28;20270;-85
2021/12/08 06:45:58;;;;;;;4.70;2.40;;;;;;;2.51;100.00;97441.03;5052519;28;20205;-85
2021/12/08 06:48:31;;;;;;;4.93;2.80;;;;;;;2.55;100.00;97436.47;5068302;27;20208;-85
2021/12/08 06:51:04;;;;;;;3.57;2.83;;;;;;;2.59;100.00;97435.34;5051930;28;20242;-85
2021/12/08 06:53:34;;;;;;;3.47;2.73;;;;;;;2.59;100.00;97425.72;5053279;28;20201;-85
2021/12/08 06:56:12;;;;;;;6.60;2.97;;;;;;;2.54;100.00;97440.84;5113462;28;20201;-86
2021/12/08 06:58:46;;;;;;;3.73;2.60;;;;;;;2.62;100.00;97447.41;5107830;28;20187;-86
2021/12/08 07:01:28;;;;;;;6.07;3.00;;;;;;;2.65;100.00;97442.81;5106744;28;20223;-85
2021/12/08 07:04:10;;;;;;;8.33;3.10;;;;;;;2.66;100.00;97449.72;5111548;28;20210;-86
2021/12/08 07:06:58;;;;;;;8.63;3.40;;;;;;;2.64;100.00;97461.22;5109042;28;20199;-86
2021/12/08 07:09:30;;;;;;;6.20;3.30;;;;;;;2.63;100.00;97464.75;5115857;28;20286;-86
2021/12/08 07:12:02;;;;;;;4.77;2.97;;;;;;;2.65;100.00;97468.97;5113498;28;20187;-86
2021/12/08 07:14:32;;;;;;;5.83;3.43;;;;;;;2.69;100.00;97467.00;5076440;28;20205;-86
2021/12/08 07:17:07;;;;;;;5.27;3.00;;;;;;;2.74;100.00;97475.41;5051014;28;20189;-86
2021/12/08 07:19:45;;;;;;;7.13;2.73;;;;;;;2.60;100.00;97476.22;5052523;28;20219;-86
2021/12/08 07:22:20;;;;;;;4.23;2.93;;;;;;;2.80;100.00;97475.06;5053232;28;20196;-86
2021/12/08 07:24:51;;;;;;;7.10;3.43;;;;;;;2.76;100.00;97478.78;5054575;28;20201;-85
2021/12/08 07:27:23;;;;;;;3.43;2.60;;;;;;;2.64;100.00;97488.19;5053863;28;20771;-85
2021/12/08 07:29:54;;;;;;;5.17;3.07;;;;;;;2.66;100.00;97475.88;5049278;28;20208;-86
2021/12/08 07:32:26;;;;;;;7.87;5.00;;;;;;;2.67;100.00;97459.25;5049977;28;20200;-86
2021/12/08 07:34:57;;;;;;;6.27;3.57;;;;;;;2.66;100.00;97464.56;5054224;28;20674;-86
2021/12/08 07:37:29;;;;;;;8.57;4.23;;;;;;;2.67;100.00;97463.63;5051717;28;20257;-86
2021/12/08 07:40:02;;;;;;;6.23;3.47;;;;;;;2.76;100.00;97495.28;5066654;27;20213;-86
2021/12/08 07:42:38;;;;;;;9.20;4.43;;;;;;;2.70;100.00;97500.91;5048288;28;20196;-85
2021/12/08 07:45:10;;;;;;;14.00;6.57;;;;;;;2.71;100.00;97518.28;5053408;28;20189;-86
2021/12/08 07:47:41;;;;;;;10.50;5.67;;;;;;;2.70;100.00;97518.34;5058120;27;20201;-85
2021/12/08 07:50:17;;;;;;;6.13;3.70;;;;;;;2.65;100.00;97495.09;5052005;28;20197;-85
2021/12/08 07:52:50;;;;;;;6.90;4.43;;;;;;;2.75;100.00;97503.22;5050612;28;20197;-86
2021/12/08 07:55:23;;;;;;;7.23;4.30;;;;;;;2.84;100.00;97500.91;5049589;28;20197;-85
2021/12/08 07:57:52;;;;;;;4.37;3.20;;;;;;;2.83;100.00;97507.09;5068626;27;20221;-85
2021/12/08 08:00:25;;;;;;;5.87;2.90;;;;;;;2.87;100.00;97495.50;5048808;28;20224;-85
2021/12/08 08:02:55;;;;;;;5.23;3.00;;;;;;;2.79;100.00;97510.78;5049043;28;20201;-85
2021/12/08 08:05:28;;;;;;;4.43;3.30;;;;;;;2.78;100.00;97530.03;5051822;28;20196;-85
2021/12/08 08:08:02;;;;;;;7.37;3.50;;;;;;;2.88;100.00;97523.31;5044321;28;20193;-85
2021/12/08 08:10:32;;;;;;;5.20;3.30;;;;;;;2.97;100.00;97527.16;5050644;28;20272;-85
2021/12/08 08:13:02;;;;;;;7.23;2.77;;;;;;;2.91;100.00;97530.16;5047735;28;20238;-85
2021/12/08 08:15:37;;;;;;;3.73;2.60;;;;;;;2.99;100.00;97525.31;5045498;28;20254;-86
2021/12/08 08:18:10;;;;;;;4.30;2.73;;;;;;;3.04;100.00;97518.03;5051124;28;20196;-85
2021/12/08 08:20:42;;;;;;;5.60;3.10;;;;;;;3.02;100.00;97519.06;5047505;28;20574;-85
2021/12/08 08:23:11;;;;;;;3.87;2.57;;;;;;;3.09;100.00;97502.06;5042525;28;20201;-86
2021/12/08 08:25:42;;;;;;;5.33;2.60;;;;;;;3.00;100.00;97469.47;5051445;28;20639;-85
2021/12/08 08:28:11;;;;;;;3.47;2.70;;;;;;;2.99;100.00;97456.47;5048865;28;20193;-85
2021/12/08 08:30:44;;;;;;;3.43;2.80;;;;;;;3.10;100.00;97464.53;5051323;28;20193;-85
2021/12/08 08:33:16;;;;;;;3.77;2.90;;;;;;;3.11;100.00;97474.03;5054454;28;20190;-85
2021/12/08 08:35:47;;;;;;;4.27;3.10;;;;;;;3.07;100.00;97480.38;5047254;28;20242;-85
2021/12/08 08:38:20;;;;;;;4.27;3.30;;;;;;;3.00;100.00;97489.56;5064427;27;20284;-86
2021/12/08 08:40:55;;;;;;;5.90;3.20;;;;;;;3.00;100.00;97494.78;5051309;28;20223;-86
2021/12/08 08:43:25;;;;;;;4.93;3.13;;;;;;;3.07;100.00;97503.91;5050425;28;20196;-86
2021/12/08 08:45:58;;;;;;;5.03;3.07;;;;;;;3.11;100.00;97498.41;5049992;28;20277;-86
2021/12/08 08:48:33;;;;;;;3.50;3.00;;;;;;;3.14;100.00;97482.53;5050737;28;20201;-85
2021/12/08 08:51:09;;;;;;;5.43;3.37;;;;;;;3.23;100.00;97486.38;5056168;28;20197;-85
2021/12/08 08:53:42;;;;;;;6.13;3.50;;;;;;;3.21;100.00;97493.47;5059155;28;20257;-85
2021/12/08 08:56:16;;;;;;;5.40;3.20;;;;;;;3.17;100.00;97500.66;5029137;28;20214;-85
2021/12/08 08:58:49;;;;;;;7.63;4.03;;;;;;;3.07;100.00;97504.75;5010252;28;20198;-85
2021/12/08 09:01:21;;;;;;;13.40;3.57;;;;;;;3.06;100.00;97507.47;5017183;28;20218;-85
2021/12/08 09:03:55;;;;;;;4.37;3.17;;;;;;;3.21;100.00;97500.47;5005123;28;20220;-85
2021/12/08 09:06:29;;;;;;;6.23;3.20;;;;;;;3.30;100.00;97511.22;5005221;28;20316;-85
2021/12/08 09:09:01;;;;;;;3.70;2.80;;;;;;;3.26;100.00;97512.31;5013575;28;20194;-85
2021/12/08 09:11:34;;;;;;;4.47;3.27;;;;;;;3.24;100.00;97515.97;5009055;28;20218;-85
2021/12/08 09:14:09;;;;;;;4.80;3.30;;;;;;;3.14;100.00;97518.31;5024199;28;20200;-86
2021/12/08 09:16:42;;;;;;;4.50;3.20;;;;;;;3.23;100.00;97516.91;5047598;28;20192;-85
2021/12/08 09:19:16;;;;;;;6.57;3.20;;;;;;;3.22;100.00;97518.69;5048897;28;20209;-86
2021/12/08 09:21:58;;;;;;;4.93;3.30;;;;;;;3.27;100.00;97519.22;5048227;28;20224;-86
2021/12/08 09:24:50;;;;;;;6.10;3.50;;;;;;;3.26;100.00;97521.94;5050010;28;20203;-86
2021/12/08 09:27:22;;;;;;;4.37;3.47;;;;;;;3.22;100.00;97525.69;5049006;28;20217;-86
2021/12/08 09:29:56;;;;;;;4.07;3.13;;;;;;;3.37;100.00;97522.13;5049761;28;20201;-86
2021/12/08 09:32:34;;;;;;;4.87;3.50;;;;;;;3.30;100.00;97526.09;5050935;28;20196;-86
2021/12/08 09:35:12;;;;;;;4.30;3.37;;;;;;;3.49;100.00;97523.19;5050251;28;20253;-86
2021/12/08 09:37:45;;;;;;;6.20;3.10;;;;;;;3.47;100.00;97523.25;5046206;28;20196;-86
2021/12/08 09:40:18;;;;;;;4.70;3.10;;;;;;;3.49;100.00;97528.41;5051010;28;20255;-86
2021/12/08 09:42:50;;;;;;;6.03;3.40;;;;;;;3.41;100.00;97537.56;5048698;28;20686;-86
2021/12/08 09:45:22;;;;;;;4.90;3.40;;;;;;;3.57;100.00;97533.97;5047340;28;20209;-85
2021/12/08 09:47:51;;;;;;;4.47;3.00;;;;;;;3.55;100.00;97525.41;5050346;28;20197;-86
2021/12/08 09:50:21;;;;;;;5.13;3.30;;;;;;;3.51;100.00;97529.16;5048854;28;20193;-86
2021/12/08 09:52:51;;;;;;;4.90;3.33;;;;;;;3.60;100.00;97521.56;5055224;27;20241;-85
2021/12/08 09:55:19;;;;;;;4.43;2.80;;;;;;;3.59;100.00;97529.53;5050135;28;20193;-85
2021/12/08 09:57:48;;;;;;;3.90;3.40;;;;;;;3.62;100.00;97529.31;5050237;28;20197;-85
2021/12/08 10:00:23;;;;;;;5.50;3.40;;;;;;;3.70;100.00;97514.81;5064793;27;20311;-85
2021/12/08 10:02:57;;;;;;;3.73;3.37;;;;;;;3.74;100.00;97510.22;5048858;28;20239;-85
2021/12/08 10:05:29;;;;;;;4.63;3.20;;;;;;;3.66;100.00;97520.31;5053317;28;20197;-85
2021/12/08 10:07:58;;;;;;;4.30;3.27;;;;;;;3.78;100.00;97527.44;5052828;28;20258;-85
2021/12/08 10:10:27;;;;;;;5.97;3.17;;;;;;;3.85;100.00;97525.25;5055959;28;20208;-85
2021/12/08 10:12:56;;;;;;;3.97;3.40;;;;;;;3.86;100.00;97527.78;5053567;28;20205;-85
2021/12/08 10:15:27;;;;;;;5.90;3.10;;;;;;;3.89;100.00;97532.00;5066757;27;20299;-85
2021/12/08 10:17:56;;;;;;;3.53;3.17;;;;;;;3.84;100.00;97545.34;5053965;28;20242;-85
2021/12/08 10:20:30;;;;;;;4.67;3.57;;;;;;;3.83;100.00;97548.91;5062281;27;20640;-85
2021/12/08 10:23:15;;;;;;;4.90;3.73;;;;;;;4.01;100.00;97537.28;5053298;28;20223;-85
2021/12/08 10:25:47;;;;;;;7.27;3.70;;;;;;;4.02;100.00;97545.97;5053348;28;20204;-85
2021/12/08 10:28:19;;;;;;;4.10;3.23;;;;;;;3.95;100.00;97540.28;5054103;28;20197;-85
2021/12/08 10:30:51;;;;;;;4.20;3.17;;;;;;;4.00;100.00;97553.94;5054390;28;20205;-85
2021/12/08 10:34:03;;;;;;;5.40;3.80;;;;;;;4.13;100.00;97546.13;5053771;28;20193;-85
2021/12/08 10:36:46;;;;;;;5.60;4.13;;;;;;;4.22;100.00;97545.53;5030391;27;20205;-85
2021/12/08 10:39:18;;;;;;;5.10;3.80;;;;;;;4.16;100.00;97550.34;5052077;28;20203;-85
2021/12/08 10:41:57;;;;;;;7.03;3.47;;;;;;;4.20;100.00;97550.03;5051940;28;20221;-85
2021/12/08 10:44:52;;;;;;;4.53;3.53;;;;;;;4.19;100.00;97548.38;5052871;28;20223;-85
2021/12/08 10:47:29;;;;;;;6.90;5.13;;;;;;;4.19;100.00;97556.22;5057139;28;20185;-85
2021/12/08 10:55:40;;;;;;;16.20;9.53;;;;;;;4.27;100.00;97522.53;5059521;28;20189;-85
2021/12/08 10:58:22;;;;;;;18.00;11.20;;;;;;;4.38;100.00;97511.34;5058427;28;20189;-85
2021/12/08 11:00:51;;;;;;;8.30;6.93;;;;;;;4.39;100.00;97517.41;5035513;28;20288;-85
2021/12/08 11:03:20;;;;;;;8.00;4.70;;;;;;;4.43;100.00;97517.09;5028562;28;20222;-85
2021/12/08 11:05:52;;;;;;;7.27;4.80;;;;;;;4.37;100.00;97517.53;5035809;28;20699;-85
2021/12/08 11:08:29;;;;;;;8.40;5.00;;;;;;;4.38;100.00;97519.19;5038605;28;20213;-85
2021/12/08 11:11:02;;;;;;;8.37;4.17;;;;;;;4.41;100.00;97508.50;5028938;28;20201;-84
2021/12/08 11:13:33;;;;;;;6.47;4.30;;;;;;;4.44;100.00;97515.31;5034821;28;20202;-85
2021/12/08 11:16:11;;;;;;;8.17;4.83;;;;;;;4.52;100.00;97513.03;5027996;28;20236;-85
2021/12/08 11:18:41;;;;;;;7.07;4.23;;;;;;;4.57;100.00;97514.41;5038648;28;20208;-85
2021/12/08 11:21:18;;;;;;;7.17;4.10;;;;;;;4.50;100.00;97517.53;5053214;28;20196;-85
2021/12/08 11:24:14;;;;;;;7.07;4.63;;;;;;;4.51;100.00;97508.75;5053481;28;20253;-85
2021/12/08 11:26:47;;;;;;;9.27;5.50;;;;;;;4.54;100.00;97504.16;5059874;27;20228;-85
2021/12/08 11:29:18;;;;;;;8.73;5.70;;;;;;;4.65;100.00;97507.84;5053118;28;20225;-85
2021/12/08 11:31:49;;;;;;;7.57;5.20;;;;;;;4.67;100.00;97514.66;5078815;27;20214;-83
2021/12/08 11:34:23;;;;;;;9.57;5.93;;;;;;;4.58;100.00;97510.03;5077356;28;20205;-84
2021/12/08 11:36:53;;;;;;;9.83;6.20;;;;;;;4.65;100.00;97513.91;5073678;27;20205;-85
2021/12/08 11:39:25;;;;;;;7.60;5.10;;;;;;;4.60;100.00;97510.75;5052766;28;20204;-84
2021/12/08 11:41:56;;;;;;;7.23;4.80;;;;;;;4.64;100.00;97509.63;5052759;28;20702;-84
2021/12/08 11:44:27;;;;;;;11.73;6.07;;;;;;;4.69;100.00;97502.28;5061119;27;20215;-84
2021/12/08 11:47:03;;;;;;;13.00;7.60;;;;;;;4.73;100.00;97513.38;5051897;28;20704;-85
2021/12/08 11:49:32;;;;;;;11.60;5.87;;;;;;;4.63;100.00;97507.06;5053085;28;20204;-84
2021/12/08 11:52:10;;;;;;;8.27;5.40;;;;;;;4.66;100.00;97507.72;5051477;28;20215;-84
2021/12/08 11:54:50;;;;;;;9.37;5.57;;;;;;;4.70;100.00;97511.81;5051184;28;20193;-85
2021/12/08 11:57:21;;;;;;;8.67;4.83;;;;;;;4.65;100.00;97511.31;5049722;28;20254;-85
2021/12/08 12:00:00;;;;;;;8.93;5.60;;;;;;;4.61;100.00;97512.44;5051750;28;20670;-85
2021/12/08 12:02:32;;;;;;;9.30;5.10;;;;;;;4.68;100.00;97520.72;5050421;28;20229;-85
2021/12/08 12:05:02;;;;;;;6.77;4.67;;;;;;;4.68;100.00;97521.56;5051642;28;20330;-85
2021/12/08 12:07:30;;;;;;;6.97;5.60;;;;;;;4.82;100.00;97513.59;5050516;28;20197;-85
2021/12/08 12:10:00;;;;;;;7.87;4.57;;;;;;;4.73;100.00;97519.50;5048141;28;20212;-85
2021/12/08 12:12:29;;;;;;;19.07;10.27;;;;;;;4.72;100.00;97517.78;5051528;28;20195;-84
2021/12/08 12:14:57;;;;;;;8.43;4.93;;;;;;;4.76;100.00;97508.78;5049635;28;20195;-85
2021/12/08 12:17:25;;;;;;;8.10;5.27;;;;;;;4.78;100.00;97511.31;5051568;28;20193;-85
2021/12/08 12:20:02;;;;;;;8.17;4.60;;;;;;;4.74;100.00;97502.81;5017644;28;20193;-85
2021/12/08 12:22:36;;;;;;;8.23;4.93;;;;;;;4.80;100.00;97509.41;5050782;28;20299;-85
2021/12/08 12:25:33;;;;;;;8.63;5.20;;;;;;;4.78;100.00;97509.53;5051916;28;20198;-84
2021/12/08 12:28:28;;;;;;;9.13;5.47;;;;;;;4.85;100.00;97502.94;5054467;28;20197;-85
2021/12/08 12:31:07;;;;;;;9.43;5.13;;;;;;;4.85;100.00;97495.06;5024210;28;20209;-84
2021/12/08 12:33:42;;;;;;;10.00;6.17;;;;;;;4.96;100.00;97504.00;5037901;28;20197;-84